sensor_id;sensor_type;location;lat;lon;timestamp;pressure;altitude;pressure_sealevel;temperature;humidity
64388;BME280;50709;52.648;4.764;2024-03-08T00:00:51;102084.47;;;8.56;65.42
64388;BME280;50709;52.648;4.764;2024-03-08T00:03:16;102085.16;;;7.96;67.38
64388;BME280;50709;52.648;4.764;2024-03-08T00:05:42;102079.84;;;8.20;66.05
64388;BME280;50709;52.648;4.764;2024-03-08T00:08:07;102063.81;;;8.61;67.46
64388;BME280;50709;52.648;4.764;2024-03-08T00:10:35;102070.03;;;8.39;67.52
64388;BME280;50709;52.648;4.764;2024-03-08T00:13:00;102062.06;;;8.92;66.41
64388;BME280;50709;52.648;4.764;2024-03-08T00:15:29;102052.56;;;8.35;66.25
64388;BME280;50709;52.648;4.764;2024-03-08T00:17:54;102065.53;;;8.33;66.69
64388;BME280;50709;52.648;4.764;2024-03-08T00:20:20;102054.78;;;8.79;66.45
64388;BME280;50709;52.648;4.764;2024-03-08T00:22:46;102067.91;;;8.27;65.34
64388;BME280;50709;52.648;4.764;2024-03-08T00:25:11;102066.75;;;8.17;64.82
64388;BME280;50709;52.648;4.764;2024-03-08T00:27:37;102058.47;;;8.29;65.41
64388;BME280;50709;52.648;4.764;2024-03-08T00:30:04;102050.44;;;8.23;65.77
64388;BME280;50709;52.648;4.764;2024-03-08T00:32:30;102038.22;;;8.48;65.97
64388;BME280;50709;52.648;4.764;2024-03-08T00:34:57;102059.97;;;8.50;65.84
64388;BME280;50709;52.648;4.764;2024-03-08T00:37:23;102048.81;;;8.54;66.15
64388;BME280;50709;52.648;4.764;2024-03-08T00:39:49;102012.53;;;8.02;66.65
64388;BME280;50709;52.648;4.764;2024-03-08T00:42:15;102040.56;;;8.40;64.88
64388;BME280;50709;52.648;4.764;2024-03-08T00:44:41;102052.63;;;7.82;63.76
64388;BME280;50709;52.648;4.764;2024-03-08T00:47:06;102034.09;;;8.27;66.49
64388;BME280;50709;52.648;4.764;2024-03-08T00:49:32;102036.03;;;8.62;66.18
64388;BME280;50709;52.648;4.764;2024-03-08T00:51:57;102035.03;;;8.29;65.81
64388;BME280;50709;52.648;4.764;2024-03-08T00:54:23;102017.72;;;8.31;67.11
64388;BME280;50709;52.648;4.764;2024-03-08T00:56:48;102021.66;;;8.17;64.01
64388;BME280;50709;52.648;4.764;2024-03-08T00:59:14;102030.88;;;8.07;64.64
64388;BME280;50709;52.648;4.764;2024-03-08T01:01:40;102016.09;;;8.06;63.32
64388;BME280;50709;52.648;4.764;2024-03-08T01:04:06;102016.97;;;8.35;65.09
64388;BME280;50709;52.648;4.764;2024-03-08T01:06:33;102009.91;;;8.31;66.88
64388;BME280;50709;52.648;4.764;2024-03-08T01:08:59;102002.31;;;8.37;66.11
64388;BME280;50709;52.648;4.764;2024-03-08T01:11:24;102003.72;;;7.99;65.76
64388;BME280;50709;52.648;4.764;2024-03-08T01:13:50;102003.88;;;8.91;67.85
64388;BME280;50709;52.648;4.764;2024-03-08T01:16:15;101999.00;;;8.43;65.61
64388;BME280;50709;52.648;4.764;2024-03-08T01:18:42;101984.09;;;8.08;65.98
64388;BME280;50709;52.648;4.764;2024-03-08T01:21:08;101980.47;;;8.61;65.54
64388;BME280;50709;52.648;4.764;2024-03-08T01:23:33;101977.50;;;8.20;64.24
64388;BME280;50709;52.648;4.764;2024-03-08T01:26:00;101981.88;;;8.21;65.99
64388;BME280;50709;52.648;4.764;2024-03-08T01:28:27;101979.75;;;8.38;64.26
64388;BME280;50709;52.648;4.764;2024-03-08T01:30:53;101972.06;;;8.41;66.12
64388;BME280;50709;52.648;4.764;2024-03-08T01:33:24;101965.03;;;8.09;65.61
64388;BME280;50709;52.648;4.764;2024-03-08T01:35:51;101978.00;;;8.08;64.32
64388;BME280;50709;52.648;4.764;2024-03-08T01:38:37;101952.66;;;8.31;66.46
64388;BME280;50709;52.648;4.764;2024-03-08T01:41:02;101968.41;;;7.51;63.73
64388;BME280;50709;52.648;4.764;2024-03-08T01:43:29;101958.88;;;8.06;66.78
64388;BME280;50709;52.648;4.764;2024-03-08T01:45:56;101939.72;;;8.33;66.58
64388;BME280;50709;52.648;4.764;2024-03-08T01:48:23;101961.97;;;8.52;66.98
64388;BME280;50709;52.648;4.764;2024-03-08T01:50:52;101957.06;;;8.34;65.26
64388;BME280;50709;52.648;4.764;2024-03-08T01:53:20;101952.44;;;8.23;65.98
64388;BME280;50709;52.648;4.764;2024-03-08T01:55:48;101940.31;;;8.24;65.71
64388;BME280;50709;52.648;4.764;2024-03-08T01:58:13;101935.94;;;8.23;65.89
64388;BME280;50709;52.648;4.764;2024-03-08T02:01:02;101950.50;;;7.87;66.11
64388;BME280;50709;52.648;4.764;2024-03-08T02:03:29;101934.75;;;8.12;66.76
64388;BME280;50709;52.648;4.764;2024-03-08T02:05:57;101935.97;;;7.94;65.71
64388;BME280;50709;52.648;4.764;2024-03-08T02:08:24;101933.44;;;7.97;67.68
64388;BME280;50709;52.648;4.764;2024-03-08T02:10:50;101928.75;;;7.85;65.79
64388;BME280;50709;52.648;4.764;2024-03-08T02:13:16;101931.72;;;7.41;66.75
64388;BME280;50709;52.648;4.764;2024-03-08T02:15:58;101926.47;;;7.96;66.70
64388;BME280;50709;52.648;4.764;2024-03-08T02:18:25;101892.66;;;7.67;65.44
64388;BME280;50709;52.648;4.764;2024-03-08T02:20:51;101927.59;;;8.35;66.45
64388;BME280;50709;52.648;4.764;2024-03-08T02:23:18;101924.41;;;8.44;67.03
64388;BME280;50709;52.648;4.764;2024-03-08T02:25:44;101926.72;;;7.48;66.68
64388;BME280;50709;52.648;4.764;2024-03-08T02:28:11;101918.81;;;8.01;67.42
64388;BME280;50709;52.648;4.764;2024-03-08T02:30:37;101906.16;;;7.83;66.31
64388;BME280;50709;52.648;4.764;2024-03-08T02:33:04;101913.53;;;7.98;65.30
64388;BME280;50709;52.648;4.764;2024-03-08T02:35:29;101897.84;;;7.96;65.47
64388;BME280;50709;52.648;4.764;2024-03-08T02:37:55;101910.09;;;7.43;65.33
64388;BME280;50709;52.648;4.764;2024-03-08T02:40:20;101917.00;;;7.42;66.89
64388;BME280;50709;52.648;4.764;2024-03-08T02:42:47;101913.22;;;7.32;66.40
64388;BME280;50709;52.648;4.764;2024-03-08T02:45:13;101888.56;;;7.19;67.15
64388;BME280;50709;52.648;4.764;2024-03-08T02:47:38;101895.75;;;7.83;65.57
64388;BME280;50709;52.648;4.764;2024-03-08T02:50:05;101883.28;;;7.72;66.50
64388;BME280;50709;52.648;4.764;2024-03-08T02:52:33;101887.50;;;7.69;65.96
64388;BME280;50709;52.648;4.764;2024-03-08T02:54:59;101876.03;;;8.21;64.09
64388;BME280;50709;52.648;4.764;2024-03-08T02:57:24;101874.09;;;7.55;66.32
64388;BME280;50709;52.648;4.764;2024-03-08T02:59:50;101877.47;;;8.10;66.18
64388;BME280;50709;52.648;4.764;2024-03-08T03:02:15;101866.31;;;7.85;68.36
64388;BME280;50709;52.648;4.764;2024-03-08T03:04:41;101865.59;;;7.61;66.17
64388;BME280;50709;52.648;4.764;2024-03-08T03:07:07;101871.38;;;7.24;64.34
64388;BME280;50709;52.648;4.764;2024-03-08T03:09:32;101864.78;;;7.34;65.83
64388;BME280;50709;52.648;4.764;2024-03-08T03:11:58;101834.34;;;7.59;67.49
64388;BME280;50709;52.648;4.764;2024-03-08T03:14:24;101852.19;;;7.47;64.53
64388;BME280;50709;52.648;4.764;2024-03-08T03:16:52;101852.63;;;7.33;66.19
64388;BME280;50709;52.648;4.764;2024-03-08T03:19:17;101848.63;;;7.45;64.82
64388;BME280;50709;52.648;4.764;2024-03-08T03:21:43;101837.56;;;7.23;65.70
64388;BME280;50709;52.648;4.764;2024-03-08T03:24:08;101854.19;;;7.01;65.00
64388;BME280;50709;52.648;4.764;2024-03-08T03:26:38;101838.88;;;7.37;63.72
64388;BME280;50709;52.648;4.764;2024-03-08T03:29:07;101847.31;;;7.57;65.10
64388;BME280;50709;52.648;4.764;2024-03-08T03:31:34;101836.63;;;7.48;64.26
64388;BME280;50709;52.648;4.764;2024-03-08T03:34:01;101839.91;;;7.15;63.81
64388;BME280;50709;52.648;4.764;2024-03-08T03:36:29;101846.31;;;7.25;63.97
64388;BME280;50709;52.648;4.764;2024-03-08T03:38:55;101826.97;;;7.44;65.81
64388;BME280;50709;52.648;4.764;2024-03-08T03:41:30;101837.16;;;7.11;65.50
64388;BME280;50709;52.648;4.764;2024-03-08T03:43:56;101825.56;;;7.27;65.49
64388;BME280;50709;52.648;4.764;2024-03-08T03:46:21;101828.97;;;6.98;65.48
64388;BME280;50709;52.648;4.764;2024-03-08T03:48:47;101829.91;;;6.49;65.59
64388;BME280;50709;52.648;4.764;2024-03-08T03:51:12;101822.75;;;6.93;64.60
64388;BME280;50709;52.648;4.764;2024-03-08T03:53:40;101823.00;;;7.28;67.18
64388;BME280;50709;52.648;4.764;2024-03-08T03:56:06;101821.34;;;7.30;66.92
64388;BME280;50709;52.648;4.764;2024-03-08T03:58:33;101809.22;;;7.60;67.44
64388;BME280;50709;52.648;4.764;2024-03-08T04:00:58;101817.03;;;7.31;65.65
64388;BME280;50709;52.648;4.764;2024-03-08T04:03:24;101805.56;;;7.53;66.07
64388;BME280;50709;52.648;4.764;2024-03-08T04:05:49;101810.00;;;7.57;66.25
64388;BME280;50709;52.648;4.764;2024-03-08T04:08:17;101810.84;;;7.27;66.01
64388;BME280;50709;52.648;4.764;2024-03-08T04:10:42;101807.16;;;6.93;63.70
64388;BME280;50709;52.648;4.764;2024-03-08T04:13:08;101808.28;;;7.29;65.37
64388;BME280;50709;52.648;4.764;2024-03-08T04:15:35;101806.34;;;6.94;64.32
64388;BME280;50709;52.648;4.764;2024-03-08T04:18:00;101799.16;;;6.87;64.12
64388;BME280;50709;52.648;4.764;2024-03-08T04:20:26;101793.50;;;7.26;67.34
64388;BME280;50709;52.648;4.764;2024-03-08T04:22:51;101800.09;;;6.62;64.38
64388;BME280;50709;52.648;4.764;2024-03-08T04:25:17;101789.97;;;6.97;65.99
64388;BME280;50709;52.648;4.764;2024-03-08T04:28:03;101800.94;;;6.88;66.83
64388;BME280;50709;52.648;4.764;2024-03-08T04:30:28;101801.31;;;6.73;64.86
64388;BME280;50709;52.648;4.764;2024-03-08T04:32:54;101794.69;;;7.09;64.10
64388;BME280;50709;52.648;4.764;2024-03-08T04:35:19;101801.19;;;6.68;64.55
64388;BME280;50709;52.648;4.764;2024-03-08T04:37:46;101800.53;;;7.03;67.63
64388;BME280;50709;52.648;4.764;2024-03-08T04:40:11;101793.81;;;6.55;65.30
64388;BME280;50709;52.648;4.764;2024-03-08T04:42:38;101798.41;;;6.64;64.24
64388;BME280;50709;52.648;4.764;2024-03-08T04:45:04;101796.22;;;6.50;64.26
64388;BME280;50709;52.648;4.764;2024-03-08T04:47:30;101784.31;;;7.09;67.26
64388;BME280;50709;52.648;4.764;2024-03-08T04:49:56;101793.84;;;6.56;64.75
64388;BME280;50709;52.648;4.764;2024-03-08T04:52:22;101791.72;;;6.70;66.32
64388;BME280;50709;52.648;4.764;2024-03-08T04:54:47;101794.94;;;6.63;66.17
64388;BME280;50709;52.648;4.764;2024-03-08T04:57:13;101797.75;;;6.69;65.59
64388;BME280;50709;52.648;4.764;2024-03-08T04:59:39;101786.09;;;6.84;64.99
64388;BME280;50709;52.648;4.764;2024-03-08T05:02:05;101781.69;;;7.09;65.13
64388;BME280;50709;52.648;4.764;2024-03-08T05:04:32;101777.78;;;6.94;66.21
64388;BME280;50709;52.648;4.764;2024-03-08T05:06:57;101781.06;;;7.16;66.25
64388;BME280;50709;52.648;4.764;2024-03-08T05:09:26;101782.47;;;6.79;65.11
64388;BME280;50709;52.648;4.764;2024-03-08T05:11:51;101781.66;;;6.54;64.88
64388;BME280;50709;52.648;4.764;2024-03-08T05:14:17;101780.84;;;6.82;65.39
64388;BME280;50709;52.648;4.764;2024-03-08T05:16:44;101781.44;;;6.48;64.18
64388;BME280;50709;52.648;4.764;2024-03-08T05:19:16;101776.00;;;6.93;66.48
64388;BME280;50709;52.648;4.764;2024-03-08T05:21:46;101782.28;;;6.47;63.99
64388;BME280;50709;52.648;4.764;2024-03-08T05:24:11;101768.66;;;6.80;65.89
64388;BME280;50709;52.648;4.764;2024-03-08T05:26:38;101769.25;;;7.27;65.02
64388;BME280;50709;52.648;4.764;2024-03-08T05:29:04;101774.53;;;6.22;64.03
64388;BME280;50709;52.648;4.764;2024-03-08T05:31:32;101769.91;;;6.39;65.59
64388;BME280;50709;52.648;4.764;2024-03-08T05:34:01;101766.53;;;6.42;65.11
64388;BME280;50709;52.648;4.764;2024-03-08T05:36:27;101765.66;;;6.16;64.76
64388;BME280;50709;52.648;4.764;2024-03-08T05:38:52;101763.66;;;6.86;66.19
64388;BME280;50709;52.648;4.764;2024-03-08T05:41:18;101762.72;;;7.11;66.58
64388;BME280;50709;52.648;4.764;2024-03-08T05:43:45;101756.25;;;6.98;65.58
64388;BME280;50709;52.648;4.764;2024-03-08T05:46:10;101776.13;;;6.70;66.57
64388;BME280;50709;52.648;4.764;2024-03-08T05:48:37;101771.94;;;7.01;65.31
64388;BME280;50709;52.648;4.764;2024-03-08T05:51:02;101757.78;;;6.92;65.14
64388;BME280;50709;52.648;4.764;2024-03-08T05:53:28;101761.69;;;6.01;64.91
64388;BME280;50709;52.648;4.764;2024-03-08T05:55:57;101768.09;;;6.88;65.26
64388;BME280;50709;52.648;4.764;2024-03-08T05:58:23;101754.34;;;6.93;66.87
64388;BME280;50709;52.648;4.764;2024-03-08T06:00:49;101758.13;;;6.75;65.92
64388;BME280;50709;52.648;4.764;2024-03-08T06:03:15;101761.91;;;7.14;66.28
64388;BME280;50709;52.648;4.764;2024-03-08T06:05:40;101743.75;;;6.59;65.61
64388;BME280;50709;52.648;4.764;2024-03-08T06:08:07;101750.13;;;6.96;65.65
64388;BME280;50709;52.648;4.764;2024-03-08T06:10:33;101756.63;;;6.82;66.88
64388;BME280;50709;52.648;4.764;2024-03-08T06:12:58;101746.31;;;6.85;66.93
64388;BME280;50709;52.648;4.764;2024-03-08T06:15:25;101751.94;;;6.71;64.95
64388;BME280;50709;52.648;4.764;2024-03-08T06:17:50;101750.78;;;7.18;64.58
64388;BME280;50709;52.648;4.764;2024-03-08T06:20:18;101743.28;;;6.98;66.29
64388;BME280;50709;52.648;4.764;2024-03-08T06:22:43;101737.34;;;7.02;65.38
64388;BME280;50709;52.648;4.764;2024-03-08T06:25:10;101732.44;;;7.42;65.91
64388;BME280;50709;52.648;4.764;2024-03-08T06:27:39;101739.25;;;7.37;65.76
64388;BME280;50709;52.648;4.764;2024-03-08T06:30:06;101739.03;;;7.29;65.20
64388;BME280;50709;52.648;4.764;2024-03-08T06:32:32;101728.69;;;7.02;65.46
64388;BME280;50709;52.648;4.764;2024-03-08T06:35:04;101731.31;;;7.32;64.47
64388;BME280;50709;52.648;4.764;2024-03-08T06:37:33;101716.94;;;8.07;64.70
64388;BME280;50709;52.648;4.764;2024-03-08T06:39:59;101745.25;;;7.95;64.91
64388;BME280;50709;52.648;4.764;2024-03-08T06:42:28;101743.66;;;8.35;65.94
64388;BME280;50709;52.648;4.764;2024-03-08T06:44:54;101743.97;;;7.81;63.06
64388;BME280;50709;52.648;4.764;2024-03-08T06:47:25;101734.69;;;7.01;64.49
64388;BME280;50709;52.648;4.764;2024-03-08T06:49:51;101729.41;;;7.87;63.26
64388;BME280;50709;52.648;4.764;2024-03-08T06:52:17;101731.47;;;7.99;62.79
64388;BME280;50709;52.648;4.764;2024-03-08T06:54:42;101728.28;;;8.45;63.32
64388;BME280;50709;52.648;4.764;2024-03-08T06:57:08;101715.69;;;8.27;64.75
64388;BME280;50709;52.648;4.764;2024-03-08T06:59:35;101727.41;;;7.79;61.62
64388;BME280;50709;52.648;4.764;2024-03-08T07:02:02;101729.91;;;7.15;63.06
64388;BME280;50709;52.648;4.764;2024-03-08T07:04:27;101730.28;;;7.88;63.94
64388;BME280;50709;52.648;4.764;2024-03-08T07:06:55;101686.16;;;7.59;63.01
64388;BME280;50709;52.648;4.764;2024-03-08T07:09:22;101728.19;;;8.40;63.91
64388;BME280;50709;52.648;4.764;2024-03-08T07:11:48;101727.88;;;7.64;61.70
64388;BME280;50709;52.648;4.764;2024-03-08T07:14:22;101729.88;;;8.04;61.93
64388;BME280;50709;52.648;4.764;2024-03-08T07:16:48;101717.34;;;8.23;62.22
64388;BME280;50709;52.648;4.764;2024-03-08T07:19:14;101723.16;;;8.13;61.84
64388;BME280;50709;52.648;4.764;2024-03-08T07:21:40;101725.69;;;8.45;62.20
64388;BME280;50709;52.648;4.764;2024-03-08T07:24:07;101734.09;;;7.38;61.60
64388;BME280;50709;52.648;4.764;2024-03-08T07:26:41;101714.84;;;7.62;63.06
64388;BME280;50709;52.648;4.764;2024-03-08T07:29:06;101708.25;;;7.73;63.08
64388;BME280;50709;52.648;4.764;2024-03-08T07:31:33;101712.38;;;7.36;61.94
64388;BME280;50709;52.648;4.764;2024-03-08T07:34:07;101717.34;;;7.29;61.03
64388;BME280;50709;52.648;4.764;2024-03-08T07:36:35;101708.56;;;8.53;64.06
64388;BME280;50709;52.648;4.764;2024-03-08T07:39:01;101705.22;;;7.60;62.30
64388;BME280;50709;52.648;4.764;2024-03-08T07:41:26;101706.56;;;8.09;62.57
64388;BME280;50709;52.648;4.764;2024-03-08T07:43:54;101704.00;;;8.11;61.88
64388;BME280;50709;52.648;4.764;2024-03-08T07:46:19;101701.91;;;8.31;64.40
64388;BME280;50709;52.648;4.764;2024-03-08T07:48:45;101683.63;;;8.28;60.60
64388;BME280;50709;52.648;4.764;2024-03-08T07:51:11;101684.03;;;8.09;61.31
64388;BME280;50709;52.648;4.764;2024-03-08T07:53:37;101696.69;;;8.29;60.48
64388;BME280;50709;52.648;4.764;2024-03-08T07:56:03;101682.75;;;8.29;61.25
64388;BME280;50709;52.648;4.764;2024-03-08T07:58:30;101688.66;;;8.21;59.11
64388;BME280;50709;52.648;4.764;2024-03-08T08:00:56;101685.97;;;8.17;61.98
64388;BME280;50709;52.648;4.764;2024-03-08T08:03:21;101688.09;;;9.06;60.34
64388;BME280;50709;52.648;4.764;2024-03-08T08:05:47;101677.75;;;9.52;60.98
64388;BME280;50709;52.648;4.764;2024-03-08T08:08:14;101663.09;;;9.59;59.56
64388;BME280;50709;52.648;4.764;2024-03-08T08:10:40;101678.78;;;9.60;61.04
64388;BME280;50709;52.648;4.764;2024-03-08T08:13:05;101680.00;;;8.94;60.58
64388;BME280;50709;52.648;4.764;2024-03-08T08:15:31;101662.59;;;8.91;60.52
64388;BME280;50709;52.648;4.764;2024-03-08T08:17:59;101666.63;;;9.18;59.70
64388;BME280;50709;52.648;4.764;2024-03-08T08:20:25;101675.50;;;9.26;61.03
64388;BME280;50709;52.648;4.764;2024-03-08T08:22:51;101624.25;;;10.25;58.97
64388;BME280;50709;52.648;4.764;2024-03-08T08:25:17;101672.22;;;8.96;60.21
64388;BME280;50709;52.648;4.764;2024-03-08T08:27:45;101675.38;;;8.81;60.30
64388;BME280;50709;52.648;4.764;2024-03-08T08:30:11;101623.50;;;8.17;61.05
64388;BME280;50709;52.648;4.764;2024-03-08T08:32:38;101663.63;;;9.00;61.03
64388;BME280;50709;52.648;4.764;2024-03-08T08:35:08;101630.53;;;8.54;58.06
64388;BME280;50709;52.648;4.764;2024-03-08T08:37:39;101649.84;;;8.29;58.98
64388;BME280;50709;52.648;4.764;2024-03-08T08:40:05;101650.13;;;8.41;60.09
64388;BME280;50709;52.648;4.764;2024-03-08T08:42:40;101657.06;;;8.78;59.02
64388;BME280;50709;52.648;4.764;2024-03-08T08:45:06;101658.44;;;8.62;59.24
64388;BME280;50709;52.648;4.764;2024-03-08T08:47:35;101648.38;;;9.61;61.84
64388;BME280;50709;52.648;4.764;2024-03-08T08:50:01;101648.50;;;8.82;59.98
64388;BME280;50709;52.648;4.764;2024-03-08T08:52:26;101650.13;;;8.06;59.28
64388;BME280;50709;52.648;4.764;2024-03-08T08:54:51;101638.41;;;8.59;59.42
64388;BME280;50709;52.648;4.764;2024-03-08T08:57:17;101645.94;;;8.47;60.13
64388;BME280;50709;52.648;4.764;2024-03-08T08:59:42;101632.16;;;8.90;59.74
64388;BME280;50709;52.648;4.764;2024-03-08T09:02:08;101630.81;;;8.32;59.92
64388;BME280;50709;52.648;4.764;2024-03-08T09:04:34;101633.94;;;9.34;60.68
64388;BME280;50709;52.648;4.764;2024-03-08T09:07:01;101636.56;;;10.34;61.00
64388;BME280;50709;52.648;4.764;2024-03-08T09:09:26;101606.47;;;9.52;60.41
64388;BME280;50709;52.648;4.764;2024-03-08T09:11:52;101613.31;;;9.02;58.99
64388;BME280;50709;52.648;4.764;2024-03-08T09:14:19;101625.19;;;8.50;58.01
64388;BME280;50709;52.648;4.764;2024-03-08T09:16:45;101616.63;;;9.38;62.06
64388;BME280;50709;52.648;4.764;2024-03-08T09:19:12;101619.59;;;8.71;58.31
64388;BME280;50709;52.648;4.764;2024-03-08T09:21:38;101594.25;;;9.49;59.25
64388;BME280;50709;52.648;4.764;2024-03-08T09:24:05;101607.84;;;9.80;57.57
64388;BME280;50709;52.648;4.764;2024-03-08T09:26:32;101595.34;;;9.62;58.88
64388;BME280;50709;52.648;4.764;2024-03-08T09:28:58;101613.19;;;8.96;58.34
64388;BME280;50709;52.648;4.764;2024-03-08T09:31:24;101592.06;;;8.44;57.04
64388;BME280;50709;52.648;4.764;2024-03-08T09:33:51;101583.38;;;9.24;60.50
64388;BME280;50709;52.648;4.764;2024-03-08T09:36:17;101587.97;;;8.94;58.21
64388;BME280;50709;52.648;4.764;2024-03-08T09:38:42;101591.94;;;9.19;60.41
64388;BME280;50709;52.648;4.764;2024-03-08T09:41:08;101558.75;;;10.68;59.83
64388;BME280;50709;52.648;4.764;2024-03-08T09:43:35;101531.38;;;9.34;57.54
64388;BME280;50709;52.648;4.764;2024-03-08T09:46:01;101571.19;;;10.26;58.52
64388;BME280;50709;52.648;4.764;2024-03-08T09:48:28;101561.59;;;8.80;56.26
64388;BME280;50709;52.648;4.764;2024-03-08T09:50:54;101539.84;;;9.69;62.36
64388;BME280;50709;52.648;4.764;2024-03-08T09:53:21;101542.13;;;10.03;59.32
64388;BME280;50709;52.648;4.764;2024-03-08T09:55:47;101540.06;;;9.83;57.61
64388;BME280;50709;52.648;4.764;2024-03-08T09:58:15;101533.78;;;8.39;56.47
64388;BME280;50709;52.648;4.764;2024-03-08T10:00:47;101531.97;;;9.17;57.51
64388;BME280;50709;52.648;4.764;2024-03-08T10:03:13;101537.31;;;9.75;56.75
64388;BME280;50709;52.648;4.764;2024-03-08T10:05:41;101519.75;;;9.64;55.87
64388;BME280;50709;52.648;4.764;2024-03-08T10:08:06;101527.34;;;9.51;55.10
64388;BME280;50709;52.648;4.764;2024-03-08T10:10:35;101522.56;;;9.76;56.31
64388;BME280;50709;52.648;4.764;2024-03-08T10:13:01;101521.47;;;9.13;56.19
64388;BME280;50709;52.648;4.764;2024-03-08T10:15:29;101523.06;;;9.55;57.44
64388;BME280;50709;52.648;4.764;2024-03-08T10:17:57;101516.13;;;9.55;57.80
64388;BME280;50709;52.648;4.764;2024-03-08T10:20:23;101516.78;;;9.97;57.46
64388;BME280;50709;52.648;4.764;2024-03-08T10:22:49;101490.25;;;10.26;58.33
64388;BME280;50709;52.648;4.764;2024-03-08T10:25:14;101513.41;;;9.48;54.13
64388;BME280;50709;52.648;4.764;2024-03-08T10:27:40;101526.75;;;10.23;56.00
64388;BME280;50709;52.648;4.764;2024-03-08T10:30:10;101505.09;;;10.30;58.04
64388;BME280;50709;52.648;4.764;2024-03-08T10:32:35;101509.56;;;10.36;55.94
64388;BME280;50709;52.648;4.764;2024-03-08T10:35:01;101502.22;;;10.74;55.67
64388;BME280;50709;52.648;4.764;2024-03-08T10:37:27;101499.25;;;9.85;53.50
64388;BME280;50709;52.648;4.764;2024-03-08T10:40:04;101517.53;;;8.90;56.79
64388;BME280;50709;52.648;4.764;2024-03-08T10:42:40;101493.72;;;10.25;58.40
64388;BME280;50709;52.648;4.764;2024-03-08T10:45:42;101487.56;;;10.21;54.77
64388;BME280;50709;52.648;4.764;2024-03-08T10:48:36;101485.19;;;10.35;57.76
64388;BME280;50709;52.648;4.764;2024-03-08T10:51:04;101482.97;;;10.02;54.01
64388;BME280;50709;52.648;4.764;2024-03-08T10:53:29;101475.53;;;9.71;55.84
64388;BME280;50709;52.648;4.764;2024-03-08T10:55:56;101428.75;;;10.47;56.81
64388;BME280;50709;52.648;4.764;2024-03-08T10:58:24;101459.94;;;9.74;54.47
64388;BME280;50709;52.648;4.764;2024-03-08T11:00:53;101457.34;;;10.36;56.35
64388;BME280;50709;52.648;4.764;2024-03-08T11:06:18;101434.53;;;10.24;56.09
64388;BME280;50709;52.648;4.764;2024-03-08T11:08:46;101441.66;;;11.16;54.56
64388;BME280;50709;52.648;4.764;2024-03-08T11:11:28;101446.13;;;11.26;51.66
64388;BME280;50709;52.648;4.764;2024-03-08T11:13:59;101434.09;;;9.93;53.61
64388;BME280;50709;52.648;4.764;2024-03-08T11:18:53;101426.75;;;11.04;55.10
64388;BME280;50709;52.648;4.764;2024-03-08T11:21:19;101423.56;;;11.37;54.13
64388;BME280;50709;52.648;4.764;2024-03-08T11:24:16;101414.78;;;11.27;53.76
64388;BME280;50709;52.648;4.764;2024-03-08T11:26:45;101408.09;;;10.68;52.87
64388;BME280;50709;52.648;4.764;2024-03-08T11:34:40;101407.25;;;10.00;54.30
64388;BME280;50709;52.648;4.764;2024-03-08T11:37:13;101399.94;;;11.26;54.24
64388;BME280;50709;52.648;4.764;2024-03-08T11:39:40;101360.84;;;11.43;54.45
64388;BME280;50709;52.648;4.764;2024-03-08T11:42:11;101381.59;;;11.20;53.04
64388;BME280;50709;52.648;4.764;2024-03-08T11:44:37;101377.22;;;11.21;55.80
64388;BME280;50709;52.648;4.764;2024-03-08T11:47:08;101364.00;;;11.01;52.71
64388;BME280;50709;52.648;4.764;2024-03-08T11:49:35;101369.38;;;11.16;53.59
64388;BME280;50709;52.648;4.764;2024-03-08T11:52:01;101368.31;;;10.97;52.54
64388;BME280;50709;52.648;4.764;2024-03-08T11:54:26;101369.59;;;11.49;53.22
64388;BME280;50709;52.648;4.764;2024-03-08T11:56:52;101362.88;;;11.91;52.81
64388;BME280;50709;52.648;4.764;2024-03-08T11:59:17;101348.97;;;11.98;56.76
64388;BME280;50709;52.648;4.764;2024-03-08T12:01:43;101352.53;;;12.08;51.87
64388;BME280;50709;52.648;4.764;2024-03-08T12:04:12;101329.00;;;12.22;55.96
64388;BME280;50709;52.648;4.764;2024-03-08T12:06:39;101336.03;;;13.68;59.57
64388;BME280;50709;52.648;4.764;2024-03-08T12:09:11;101333.06;;;11.67;51.20
64388;BME280;50709;52.648;4.764;2024-03-08T12:11:37;101326.41;;;12.33;50.53
64388;BME280;50709;52.648;4.764;2024-03-08T12:14:04;101300.25;;;12.90;53.62
64388;BME280;50709;52.648;4.764;2024-03-08T12:16:29;101320.00;;;11.67;51.04
64388;BME280;50709;52.648;4.764;2024-03-08T12:18:55;101291.41;;;12.10;49.70
64388;BME280;50709;52.648;4.764;2024-03-08T12:21:21;101308.06;;;12.36;50.90
64388;BME280;50709;52.648;4.764;2024-03-08T12:24:08;101295.34;;;11.28;51.03
64388;BME280;50709;52.648;4.764;2024-03-08T12:26:35;101254.16;;;10.91;50.20
64388;BME280;50709;52.648;4.764;2024-03-08T12:29:24;101300.47;;;11.11;52.42
64388;BME280;50709;52.648;4.764;2024-03-08T12:31:58;101270.50;;;12.15;51.90
64388;BME280;50709;52.648;4.764;2024-03-08T12:34:27;101275.34;;;11.35;52.48
64388;BME280;50709;52.648;4.764;2024-03-08T12:36:54;101252.03;;;11.84;51.73
64388;BME280;50709;52.648;4.764;2024-03-08T12:39:21;101254.53;;;11.52;52.11
64388;BME280;50709;52.648;4.764;2024-03-08T12:41:55;101245.16;;;12.03;51.56
64388;BME280;50709;52.648;4.764;2024-03-08T12:44:22;101242.44;;;11.77;51.33
64388;BME280;50709;52.648;4.764;2024-03-08T12:46:48;101244.09;;;11.59;50.96
64388;BME280;50709;52.648;4.764;2024-03-08T12:49:14;101241.50;;;11.63;51.46
64388;BME280;50709;52.648;4.764;2024-03-08T12:51:43;101243.41;;;12.01;53.63
64388;BME280;50709;52.648;4.764;2024-03-08T12:54:09;101210.88;;;11.38;50.47
64388;BME280;50709;52.648;4.764;2024-03-08T12:56:35;101222.44;;;12.04;52.79
64388;BME280;50709;52.648;4.764;2024-03-08T12:59:03;101233.72;;;11.86;51.37
64388;BME280;50709;52.648;4.764;2024-03-08T13:01:30;101234.69;;;12.00;51.27
64388;BME280;50709;52.648;4.764;2024-03-08T13:03:57;101251.81;;;11.35;52.10
64388;BME280;50709;52.648;4.764;2024-03-08T13:06:24;101222.34;;;11.79;52.08
64388;BME280;50709;52.648;4.764;2024-03-08T13:08:52;101210.25;;;12.21;51.50